Caldwell, Kansas
Current Conditions -  °F | °C
As of 7:15 PM on Saturday 20 Dec 2014 (Local Time) from KBKN Reporting Station
Overcast Overcast  
Wind Chill: 37°   Ceiling: 1600
Heat Index: 43°   Visibility: 10mi
Dew Point: 39°   Wind: 9mph
Humidity: 87%   Direction: 190°S
Pressure: 30.14"   Gusts: NA
Location:  37.03°N, 97.61°W
Report Text: KBKN 210115Z AUTO 19008KT 10SM OVC016 06/04 A3014 RMK AO2
Loading
Personal Weather Stations






























Interactive Weather Map New forecast layout! Learn more

10-Day Weather Forecast

Advertisements
Track Severe Weather on mobile